Terminal Aerodrome Forecast
Issued by NWS Shreveport, LA

Home | Current Version | Previous Version | Text Only | Print | Product List | Glossary On
Versions: 1 2 3 4 5 6 7 8 9 10 11 12 13 14 15 16
840
FTUS44 KSHV 222327
TAFELD
TAF
KELD 222327Z 2300/2324 VRB03KT P6SM SKC
      TEMPO 2309/2313 2SM BR
     FM231300 VRB03KT P6SM SCT005
     FM231500 VRB03KT P6SM SCT025
     FM231800 VRB04KT P6SM SCT040=

USA.gov is the U.S. government's official web portal to all federal, state and local government web resources and services.